sensor_id;sensor_type;location;lat;lon;timestamp;pressure;altitude;pressure_sealevel;temperature;humidity
23433;BME280;41331;45.412;10.992;2023-12-20T00:00:39;101047.41;;;3.45;100.00
23433;BME280;41331;45.412;10.992;2023-12-20T00:03:07;101045.78;;;3.49;100.00
23433;BME280;41331;45.412;10.992;2023-12-20T00:05:35;101040.69;;;3.43;100.00
23433;BME280;41331;45.412;10.992;2023-12-20T00:08:04;101040.69;;;3.48;100.00
23433;BME280;41331;45.412;10.992;2023-12-20T00:10:32;101033.69;;;3.47;100.00
23433;BME280;41331;45.412;10.992;2023-12-20T00:13:00;101032.63;;;3.48;100.00
23433;BME280;41331;45.412;10.992;2023-12-20T00:15:28;101022.09;;;3.46;100.00
23433;BME280;41331;45.412;10.992;2023-12-20T00:17:56;101021.84;;;3.53;100.00
23433;BME280;41331;45.412;10.992;2023-12-20T00:20:24;101010.00;;;3.54;100.00
23433;BME280;41331;45.412;10.992;2023-12-20T00:22:52;101004.63;;;3.54;100.00
23433;BME280;41331;45.412;10.992;2023-12-20T00:25:19;100995.19;;;3.56;100.00
23433;BME280;41331;45.412;10.992;2023-12-20T00:27:47;100997.63;;;3.58;100.00
23433;BME280;41331;45.412;10.992;2023-12-20T00:30:16;100994.38;;;3.56;100.00
23433;BME280;41331;45.412;10.992;2023-12-20T00:32:44;100991.97;;;3.59;100.00
23433;BME280;41331;45.412;10.992;2023-12-20T00:35:18;100991.16;;;3.54;100.00
23433;BME280;41331;45.412;10.992;2023-12-20T00:37:46;100990.63;;;3.42;100.00
23433;BME280;41331;45.412;10.992;2023-12-20T00:40:14;100982.00;;;3.45;100.00
23433;BME280;41331;45.412;10.992;2023-12-20T00:42:42;100976.91;;;3.48;100.00
23433;BME280;41331;45.412;10.992;2023-12-20T00:45:10;100972.59;;;3.47;100.00
23433;BME280;41331;45.412;10.992;2023-12-20T00:47:38;100969.63;;;3.54;100.00
23433;BME280;41331;45.412;10.992;2023-12-20T00:50:07;100961.03;;;3.52;100.00
23433;BME280;41331;45.412;10.992;2023-12-20T00:52:35;100962.88;;;3.46;100.00
23433;BME280;41331;45.412;10.992;2023-12-20T00:55:03;100964.22;;;3.23;100.00
23433;BME280;41331;45.412;10.992;2023-12-20T00:57:31;100963.13;;;3.14;100.00
23433;BME280;41331;45.412;10.992;2023-12-20T00:59:59;100959.34;;;3.15;100.00
23433;BME280;41331;45.412;10.992;2023-12-20T01:02:27;100953.97;;;3.10;100.00
23433;BME280;41331;45.412;10.992;2023-12-20T01:04:55;100960.69;;;3.07;100.00
23433;BME280;41331;45.412;10.992;2023-12-20T01:07:23;100953.69;;;3.01;100.00
23433;BME280;41331;45.412;10.992;2023-12-20T01:09:51;100950.91;;;2.81;100.00
23433;BME280;41331;45.412;10.992;2023-12-20T01:12:19;100949.03;;;2.76;100.00
23433;BME280;41331;45.412;10.992;2023-12-20T01:14:47;100950.91;;;2.81;100.00
23433;BME280;41331;45.412;10.992;2023-12-20T01:17:16;100945.31;;;2.88;100.00
23433;BME280;41331;45.412;10.992;2023-12-20T01:19:44;100944.75;;;2.91;100.00
23433;BME280;41331;45.412;10.992;2023-12-20T01:22:12;100939.69;;;3.04;100.00
23433;BME280;41331;45.412;10.992;2023-12-20T01:24:40;100936.75;;;3.16;100.00
23433;BME280;41331;45.412;10.992;2023-12-20T01:27:08;100942.69;;;3.13;100.00
23433;BME280;41331;45.412;10.992;2023-12-20T01:29:36;100925.47;;;3.09;100.00
23433;BME280;41331;45.412;10.992;2023-12-20T01:32:04;100929.53;;;3.17;100.00
23433;BME280;41331;45.412;10.992;2023-12-20T01:34:32;100934.63;;;3.18;100.00
23433;BME280;41331;45.412;10.992;2023-12-20T01:37:00;100934.63;;;3.13;100.00
23433;BME280;41331;45.412;10.992;2023-12-20T01:39:29;100938.91;;;3.09;100.00
23433;BME280;41331;45.412;10.992;2023-12-20T01:41:57;100935.41;;;3.14;100.00
23433;BME280;41331;45.412;10.992;2023-12-20T01:44:25;100929.75;;;3.10;100.00
23433;BME280;41331;45.412;10.992;2023-12-20T01:46:52;100922.47;;;3.00;100.00
23433;BME280;41331;45.412;10.992;2023-12-20T01:49:21;100918.97;;;3.00;100.00
23433;BME280;41331;45.412;10.992;2023-12-20T01:51:50;100918.44;;;2.93;100.00
23433;BME280;41331;45.412;10.992;2023-12-20T01:54:19;100918.16;;;2.94;100.00
23433;BME280;41331;45.412;10.992;2023-12-20T01:56:49;100918.19;;;2.99;100.00
23433;BME280;41331;45.412;10.992;2023-12-20T01:59:19;100920.88;;;2.99;100.00
23433;BME280;41331;45.412;10.992;2023-12-20T02:01:48;100912.78;;;2.99;100.00
23433;BME280;41331;45.412;10.992;2023-12-20T02:04:16;100896.38;;;3.01;100.00
23433;BME280;41331;45.412;10.992;2023-12-20T02:06:46;100898.81;;;2.97;100.00
23433;BME280;41331;45.412;10.992;2023-12-20T02:09:15;100892.88;;;2.95;100.00
23433;BME280;41331;45.412;10.992;2023-12-20T02:11:43;100884.81;;;2.95;100.00
23433;BME280;41331;45.412;10.992;2023-12-20T02:14:11;100888.06;;;2.97;100.00
23433;BME280;41331;45.412;10.992;2023-12-20T02:16:39;100899.09;;;3.06;100.00
23433;BME280;41331;45.412;10.992;2023-12-20T02:19:13;100892.66;;;3.02;100.00
23433;BME280;41331;45.412;10.992;2023-12-20T02:21:42;100896.13;;;2.97;100.00
23433;BME280;41331;45.412;10.992;2023-12-20T02:24:10;100885.09;;;2.94;100.00
23433;BME280;41331;45.412;10.992;2023-12-20T02:26:38;100882.66;;;2.87;100.00
23433;BME280;41331;45.412;10.992;2023-12-20T02:29:06;100878.63;;;2.84;100.00
23433;BME280;41331;45.412;10.992;2023-12-20T02:31:34;100877.31;;;2.92;100.00
23433;BME280;41331;45.412;10.992;2023-12-20T02:34:01;100876.75;;;2.90;100.00
23433;BME280;41331;45.412;10.992;2023-12-20T02:36:29;100871.63;;;2.89;100.00
23433;BME280;41331;45.412;10.992;2023-12-20T02:38:57;100864.63;;;2.77;100.00
23433;BME280;41331;45.412;10.992;2023-12-20T02:41:25;100870.03;;;2.82;100.00
23433;BME280;41331;45.412;10.992;2023-12-20T02:43:53;100870.03;;;2.82;100.00
23433;BME280;41331;45.412;10.992;2023-12-20T02:46:20;100868.41;;;2.76;100.00
23433;BME280;41331;45.412;10.992;2023-12-20T02:48:48;100864.88;;;2.71;100.00
23433;BME280;41331;45.412;10.992;2023-12-20T02:51:16;100845.75;;;2.52;100.00
23433;BME280;41331;45.412;10.992;2023-12-20T02:53:44;100855.44;;;2.53;100.00
23433;BME280;41331;45.412;10.992;2023-12-20T02:56:12;100855.16;;;2.59;100.00
23433;BME280;41331;45.412;10.992;2023-12-20T02:58:41;100852.47;;;2.59;100.00
23433;BME280;41331;45.412;10.992;2023-12-20T03:01:09;100856.25;;;2.64;100.00
23433;BME280;41331;45.412;10.992;2023-12-20T03:03:37;100842.28;;;2.62;100.00
23433;BME280;41331;45.412;10.992;2023-12-20T03:06:05;100841.50;;;2.71;100.00
23433;BME280;41331;45.412;10.992;2023-12-20T03:08:32;100840.44;;;2.72;100.00
23433;BME280;41331;45.412;10.992;2023-12-20T03:11:00;100832.38;;;2.72;100.00
23433;BME280;41331;45.412;10.992;2023-12-20T03:13:28;100823.72;;;2.55;100.00
23433;BME280;41331;45.412;10.992;2023-12-20T03:15:56;100825.06;;;2.52;100.00
23433;BME280;41331;45.412;10.992;2023-12-20T03:18:24;100823.72;;;2.55;100.00
23433;BME280;41331;45.412;10.992;2023-12-20T03:20:52;100820.22;;;2.49;100.00
23433;BME280;41331;45.412;10.992;2023-12-20T03:23:20;100819.94;;;2.46;100.00
23433;BME280;41331;45.412;10.992;2023-12-20T03:25:48;100807.09;;;2.68;100.00
23433;BME280;41331;45.412;10.992;2023-12-20T03:28:15;100803.34;;;2.74;100.00
23433;BME280;41331;45.412;10.992;2023-12-20T03:30:43;100782.91;;;2.63;100.00
23433;BME280;41331;45.412;10.992;2023-12-20T03:33:11;100790.66;;;2.54;100.00
23433;BME280;41331;45.412;10.992;2023-12-20T03:35:39;100789.59;;;2.60;100.00
23433;BME280;41331;45.412;10.992;2023-12-20T03:38:07;100791.22;;;2.62;100.00
23433;BME280;41331;45.412;10.992;2023-12-20T03:40:35;100786.13;;;2.70;100.00
23433;BME280;41331;45.412;10.992;2023-12-20T03:43:03;100771.88;;;2.70;100.00
23433;BME280;41331;45.412;10.992;2023-12-20T03:45:31;100774.31;;;2.81;100.00
23433;BME280;41331;45.412;10.992;2023-12-20T03:47:59;100783.19;;;2.92;100.00
23433;BME280;41331;45.412;10.992;2023-12-20T03:50:27;100792.31;;;2.91;100.00
23433;BME280;41331;45.412;10.992;2023-12-20T03:52:54;100796.09;;;2.95;100.00
23433;BME280;41331;45.412;10.992;2023-12-20T03:55:22;100796.38;;;3.09;100.00
23433;BME280;41331;45.412;10.992;2023-12-20T03:57:50;100801.22;;;3.12;100.00
23433;BME280;41331;45.412;10.992;2023-12-20T04:00:18;100803.63;;;3.14;100.00
23433;BME280;41331;45.412;10.992;2023-12-20T04:02:46;100792.34;;;3.27;100.00
23433;BME280;41331;45.412;10.992;2023-12-20T04:05:14;100794.19;;;3.36;100.00
23433;BME280;41331;45.412;10.992;2023-12-20T04:07:42;100784.22;;;3.42;100.00
23433;BME280;41331;45.412;10.992;2023-12-20T04:10:11;100780.78;;;3.26;100.00
23433;BME280;41331;45.412;10.992;2023-12-20T04:12:39;100774.84;;;3.19;100.00
23433;BME280;41331;45.412;10.992;2023-12-20T04:15:07;100764.63;;;3.11;100.00
23433;BME280;41331;45.412;10.992;2023-12-20T04:17:37;100770.28;;;3.09;100.00
23433;BME280;41331;45.412;10.992;2023-12-20T04:20:08;100766.50;;;3.10;100.00
23433;BME280;41331;45.412;10.992;2023-12-20T04:22:36;100757.09;;;3.03;100.00
23433;BME280;41331;45.412;10.992;2023-12-20T04:25:04;100745.53;;;3.13;100.00
23433;BME280;41331;45.412;10.992;2023-12-20T04:27:33;100737.72;;;3.11;100.00
23433;BME280;41331;45.412;10.992;2023-12-20T04:30:00;100737.72;;;3.16;100.00
23433;BME280;41331;45.412;10.992;2023-12-20T04:32:29;100748.72;;;3.30;100.00
23433;BME280;41331;45.412;10.992;2023-12-20T04:34:57;100744.72;;;3.27;100.00
23433;BME280;41331;45.412;10.992;2023-12-20T04:37:25;100738.53;;;3.27;100.00
23433;BME280;41331;45.412;10.992;2023-12-20T04:39:53;100744.16;;;3.30;100.00
23433;BME280;41331;45.412;10.992;2023-12-20T04:42:20;100745.78;;;3.26;100.00
23433;BME280;41331;45.412;10.992;2023-12-20T04:44:48;100734.19;;;3.31;100.00
23433;BME280;41331;45.412;10.992;2023-12-20T04:47:16;100746.31;;;3.28;100.00
23433;BME280;41331;45.412;10.992;2023-12-20T04:49:44;100746.31;;;3.28;100.00
23433;BME280;41331;45.412;10.992;2023-12-20T04:52:12;100762.19;;;3.30;100.00
23433;BME280;41331;45.412;10.992;2023-12-20T04:54:39;100754.38;;;3.28;100.00
23433;BME280;41331;45.412;10.992;2023-12-20T04:57:11;100741.22;;;3.27;100.00
23433;BME280;41331;45.412;10.992;2023-12-20T04:59:39;100722.09;;;3.38;100.00
23433;BME280;41331;45.412;10.992;2023-12-20T05:02:07;100721.78;;;3.40;100.00
23433;BME280;41331;45.412;10.992;2023-12-20T05:04:34;100721.78;;;3.40;100.00
23433;BME280;41331;45.412;10.992;2023-12-20T05:07:02;100716.69;;;3.38;100.00
23433;BME280;41331;45.412;10.992;2023-12-20T05:09:33;100715.63;;;3.34;100.00
23433;BME280;41331;45.412;10.992;2023-12-20T05:12:01;100720.50;;;3.32;100.00
23433;BME280;41331;45.412;10.992;2023-12-20T05:14:28;100733.69;;;3.24;100.00
23433;BME280;41331;45.412;10.992;2023-12-20T05:16:56;100738.28;;;3.13;100.00
23433;BME280;41331;45.412;10.992;2023-12-20T05:19:24;100744.44;;;3.29;100.00
23433;BME280;41331;45.412;10.992;2023-12-20T05:21:52;100738.22;;;3.38;100.00
23433;BME280;41331;45.412;10.992;2023-12-20T05:24:20;100751.41;;;3.40;100.00
23433;BME280;41331;45.412;10.992;2023-12-20T05:26:48;100742.00;;;3.43;100.00
23433;BME280;41331;45.412;10.992;2023-12-20T05:29:19;100744.41;;;3.44;100.00
23433;BME280;41331;45.412;10.992;2023-12-20T05:31:47;100735.78;;;3.47;100.00
23433;BME280;41331;45.412;10.992;2023-12-20T05:34:15;100729.84;;;3.50;100.00
23433;BME280;41331;45.412;10.992;2023-12-20T05:36:43;100724.44;;;3.55;100.00
23433;BME280;41331;45.412;10.992;2023-12-20T05:39:11;100724.72;;;3.59;100.00
23433;BME280;41331;45.412;10.992;2023-12-20T05:41:39;100726.31;;;3.60;100.00
23433;BME280;41331;45.412;10.992;2023-12-20T05:44:07;100717.97;;;3.61;100.00
23433;BME280;41331;45.412;10.992;2023-12-20T05:46:35;100717.97;;;3.67;100.00
23433;BME280;41331;45.412;10.992;2023-12-20T05:49:02;100722.00;;;3.64;100.00
23433;BME280;41331;45.412;10.992;2023-12-20T05:51:30;100727.13;;;3.60;100.00
23433;BME280;41331;45.412;10.992;2023-12-20T05:53:58;100720.38;;;3.63;100.00
23433;BME280;41331;45.412;10.992;2023-12-20T05:56:26;100713.13;;;3.58;100.00
23433;BME280;41331;45.412;10.992;2023-12-20T05:58:55;100711.50;;;3.62;100.00
23433;BME280;41331;45.412;10.992;2023-12-20T06:01:23;100704.50;;;3.72;100.00
23433;BME280;41331;45.412;10.992;2023-12-20T06:03:53;100710.66;;;3.77;100.00
23433;BME280;41331;45.412;10.992;2023-12-20T06:06:21;100718.69;;;3.82;100.00
23433;BME280;41331;45.412;10.992;2023-12-20T06:08:49;100709.81;;;3.82;100.00
23433;BME280;41331;45.412;10.992;2023-12-20T06:11:17;100713.31;;;3.82;100.00
23433;BME280;41331;45.412;10.992;2023-12-20T06:13:44;100715.22;;;3.82;100.00
23433;BME280;41331;45.412;10.992;2023-12-20T06:16:12;100710.38;;;3.79;100.00
23433;BME280;41331;45.412;10.992;2023-12-20T06:18:40;100710.84;;;3.86;100.00
23433;BME280;41331;45.412;10.992;2023-12-20T06:21:08;100695.50;;;3.92;100.00
23433;BME280;41331;45.412;10.992;2023-12-20T06:23:36;100701.69;;;3.92;100.00
23433;BME280;41331;45.412;10.992;2023-12-20T06:26:03;100711.63;;;3.97;100.00
23433;BME280;41331;45.412;10.992;2023-12-20T06:28:31;100703.31;;;3.93;100.00
23433;BME280;41331;45.412;10.992;2023-12-20T06:30:59;100703.03;;;3.89;100.00
23433;BME280;41331;45.412;10.992;2023-12-20T06:33:28;100697.13;;;3.93;100.00
23433;BME280;41331;45.412;10.992;2023-12-20T06:35:58;100690.16;;;3.81;100.00
23433;BME280;41331;45.412;10.992;2023-12-20T06:38:26;100687.75;;;3.75;100.00
23433;BME280;41331;45.412;10.992;2023-12-20T06:40:53;100683.22;;;3.65;100.00
23433;BME280;41331;45.412;10.992;2023-12-20T06:43:21;100696.69;;;3.65;100.00
23433;BME280;41331;45.412;10.992;2023-12-20T06:46:09;100701.78;;;3.72;100.00
23433;BME280;41331;45.412;10.992;2023-12-20T06:48:37;100688.25;;;3.87;100.00
23433;BME280;41331;45.412;10.992;2023-12-20T06:51:05;100682.63;;;3.83;100.00
23433;BME280;41331;45.412;10.992;2023-12-20T06:53:33;100676.66;;;3.86;100.00
23433;BME280;41331;45.412;10.992;2023-12-20T06:56:01;100678.56;;;3.81;100.00
23433;BME280;41331;45.412;10.992;2023-12-20T06:58:30;100687.44;;;3.81;100.00
23433;BME280;41331;45.412;10.992;2023-12-20T07:00:58;100692.00;;;3.86;100.00
23433;BME280;41331;45.412;10.992;2023-12-20T07:03:26;100687.69;;;3.90;100.00
23433;BME280;41331;45.412;10.992;2023-12-20T07:05:54;100697.13;;;3.93;100.00
23433;BME280;41331;45.412;10.992;2023-12-20T07:08:21;100693.00;;;4.00;100.00
23433;BME280;41331;45.412;10.992;2023-12-20T07:10:49;100700.78;;;4.12;100.00
23433;BME280;41331;45.412;10.992;2023-12-20T07:13:17;100705.50;;;4.30;100.00
23433;BME280;41331;45.412;10.992;2023-12-20T07:15:45;100703.34;;;4.66;100.00
23433;BME280;41331;45.412;10.992;2023-12-20T07:18:13;100704.16;;;4.67;100.00
23433;BME280;41331;45.412;10.992;2023-12-20T07:20:41;100716.31;;;4.64;100.00
23433;BME280;41331;45.412;10.992;2023-12-20T07:23:09;100708.25;;;4.59;100.00
23433;BME280;41331;45.412;10.992;2023-12-20T07:25:37;100708.28;;;4.54;100.00
23433;BME280;41331;45.412;10.992;2023-12-20T07:28:05;100715.03;;;4.52;100.00
23433;BME280;41331;45.412;10.992;2023-12-20T07:30:33;100730.69;;;4.50;100.00
23433;BME280;41331;45.412;10.992;2023-12-20T07:33:01;100724.72;;;4.58;100.00
23433;BME280;41331;45.412;10.992;2023-12-20T07:35:30;100734.13;;;4.60;100.00
23433;BME280;41331;45.412;10.992;2023-12-20T07:37:58;100739.25;;;4.62;100.00
23433;BME280;41331;45.412;10.992;2023-12-20T07:40:26;100723.59;;;4.64;100.00
23433;BME280;41331;45.412;10.992;2023-12-20T07:42:54;100717.56;;;4.77;100.00
23433;BME280;41331;45.412;10.992;2023-12-20T07:45:21;100711.59;;;4.80;100.00
23433;BME280;41331;45.412;10.992;2023-12-20T07:47:49;100709.19;;;4.79;100.00
23433;BME280;41331;45.412;10.992;2023-12-20T07:50:17;100702.75;;;4.75;100.00
23433;BME280;41331;45.412;10.992;2023-12-20T07:52:45;100700.88;;;4.70;100.00
23433;BME280;41331;45.412;10.992;2023-12-20T07:55:13;100710.59;;;4.71;100.00
23433;BME280;41331;45.412;10.992;2023-12-20T07:57:41;100712.44;;;4.76;100.00
23433;BME280;41331;45.412;10.992;2023-12-20T08:00:10;100718.59;;;4.81;100.00
23433;BME280;41331;45.412;10.992;2023-12-20T08:02:38;100730.19;;;4.82;100.00
23433;BME280;41331;45.412;10.992;2023-12-20T08:05:06;100731.78;;;4.88;100.00
23433;BME280;41331;45.412;10.992;2023-12-20T08:07:34;100736.28;;;4.98;100.00
23433;BME280;41331;45.412;10.992;2023-12-20T08:10:02;100740.53;;;5.04;100.00
23433;BME280;41331;45.412;10.992;2023-12-20T08:12:30;100741.00;;;5.11;100.00
23433;BME280;41331;45.412;10.992;2023-12-20T08:14:57;100746.81;;;5.23;100.00
23433;BME280;41331;45.412;10.992;2023-12-20T08:17:25;100741.44;;;5.23;100.00
23433;BME280;41331;45.412;10.992;2023-12-20T08:19:53;100741.31;;;5.33;100.00
23433;BME280;41331;45.412;10.992;2023-12-20T08:22:21;100748.50;;;5.43;100.00
23433;BME280;41331;45.412;10.992;2023-12-20T08:24:49;100750.41;;;5.42;100.00
23433;BME280;41331;45.412;10.992;2023-12-20T08:27:17;100746.94;;;5.37;100.00
23433;BME280;41331;45.412;10.992;2023-12-20T08:29:45;100744.53;;;5.35;100.00
23433;BME280;41331;45.412;10.992;2023-12-20T08:32:13;100747.47;;;5.39;100.00
23433;BME280;41331;45.412;10.992;2023-12-20T08:34:40;100753.66;;;5.39;100.00
23433;BME280;41331;45.412;10.992;2023-12-20T08:37:08;100761.25;;;5.37;100.00
23433;BME280;41331;45.412;10.992;2023-12-20T08:39:36;100753.44;;;5.36;100.00
23433;BME280;41331;45.412;10.992;2023-12-20T08:42:04;100751.53;;;5.36;100.00
23433;BME280;41331;45.412;10.992;2023-12-20T08:44:32;100758.88;;;5.31;100.00
23433;BME280;41331;45.412;10.992;2023-12-20T08:47:00;100764.56;;;5.29;100.00
23433;BME280;41331;45.412;10.992;2023-12-20T08:49:28;100756.81;;;5.23;100.00
23433;BME280;41331;45.412;10.992;2023-12-20T08:51:56;100760.81;;;5.25;100.00
23433;BME280;41331;45.412;10.992;2023-12-20T08:54:24;100755.97;;;5.27;100.00
23433;BME280;41331;45.412;10.992;2023-12-20T08:56:52;100753.34;;;5.17;100.00
23433;BME280;41331;45.412;10.992;2023-12-20T08:59:19;100753.81;;;5.24;100.00
23433;BME280;41331;45.412;10.992;2023-12-20T09:01:47;100754.34;;;5.26;100.00
23433;BME280;41331;45.412;10.992;2023-12-20T09:04:16;100755.09;;;5.32;100.00
23433;BME280;41331;45.412;10.992;2023-12-20T09:06:44;100749.31;;;5.43;100.00
23433;BME280;41331;45.412;10.992;2023-12-20T09:09:12;100740.00;;;5.55;100.00
23433;BME280;41331;45.412;10.992;2023-12-20T09:11:42;100744.56;;;5.59;100.00
23433;BME280;41331;45.412;10.992;2023-12-20T09:14:10;100756.81;;;5.46;100.00
23433;BME280;41331;45.412;10.992;2023-12-20T09:16:37;100765.84;;;5.37;100.00
23433;BME280;41331;45.412;10.992;2023-12-20T09:19:05;100778.06;;;5.29;100.00
23433;BME280;41331;45.412;10.992;2023-12-20T09:21:33;100770.44;;;5.36;100.00
23433;BME280;41331;45.412;10.992;2023-12-20T09:24:01;100766.63;;;5.42;100.00
23433;BME280;41331;45.412;10.992;2023-12-20T09:26:28;100755.53;;;5.44;100.00
23433;BME280;41331;45.412;10.992;2023-12-20T09:28:56;100755.13;;;5.56;100.00
23433;BME280;41331;45.412;10.992;2023-12-20T09:31:24;100746.63;;;5.67;100.00
23433;BME280;41331;45.412;10.992;2023-12-20T09:33:52;100750.50;;;5.56;100.00
23433;BME280;41331;45.412;10.992;2023-12-20T09:36:20;100750.31;;;5.53;100.00
23433;BME280;41331;45.412;10.992;2023-12-20T09:38:48;100746.97;;;5.61;100.00
23433;BME280;41331;45.412;10.992;2023-12-20T09:41:16;100739.16;;;5.59;100.00
23433;BME280;41331;45.412;10.992;2023-12-20T09:43:46;100727.19;;;5.65;100.00
23433;BME280;41331;45.412;10.992;2023-12-20T09:46:18;100725.03;;;5.67;100.00
23433;BME280;41331;45.412;10.992;2023-12-20T09:48:49;100725.84;;;5.68;100.00
23433;BME280;41331;45.412;10.992;2023-12-20T09:51:17;100713.94;;;5.69;100.00
23433;BME280;41331;45.412;10.992;2023-12-20T09:53:46;100713.94;;;5.69;100.00
23433;BME280;41331;45.412;10.992;2023-12-20T09:56:33;100722.66;;;5.61;100.00
23433;BME280;41331;45.412;10.992;2023-12-20T09:59:01;100733.44;;;5.61;100.00
23433;BME280;41331;45.412;10.992;2023-12-20T10:01:30;100721.28;;;5.63;100.00
23433;BME280;41331;45.412;10.992;2023-12-20T10:04:00;100722.59;;;5.66;100.00
23433;BME280;41331;45.412;10.992;2023-12-20T10:06:32;100712.28;;;5.49;100.00
23433;BME280;41331;45.412;10.992;2023-12-20T10:09:00;100711.78;;;5.42;100.00
23433;BME280;41331;45.412;10.992;2023-12-20T10:11:27;100701.22;;;5.45;100.00
23433;BME280;41331;45.412;10.992;2023-12-20T10:13:59;100687.84;;;5.35;100.00
23433;BME280;41331;45.412;10.992;2023-12-20T10:16:30;100679.81;;;5.30;100.00
23433;BME280;41331;45.412;10.992;2023-12-20T10:18:59;100680.91;;;5.29;100.00
23433;BME280;41331;45.412;10.992;2023-12-20T10:21:28;100698.94;;;5.34;100.00
23433;BME280;41331;45.412;10.992;2023-12-20T10:23:57;100698.03;;;5.43;100.00
23433;BME280;41331;45.412;10.992;2023-12-20T10:26:26;100694.00;;;5.41;100.00
23433;BME280;41331;45.412;10.992;2023-12-20T10:28:59;100693.38;;;5.49;100.00
23433;BME280;41331;45.412;10.992;2023-12-20T10:31:34;100684.69;;;5.52;100.00
23433;BME280;41331;45.412;10.992;2023-12-20T10:34:02;100681.72;;;5.54;100.00
23433;BME280;41331;45.412;10.992;2023-12-20T10:36:32;100683.44;;;5.44;100.00
23433;BME280;41331;45.412;10.992;2023-12-20T10:39:01;100690.44;;;5.45;100.00
23433;BME280;41331;45.412;10.992;2023-12-20T10:41:32;100690.72;;;5.44;100.00
23433;BME280;41331;45.412;10.992;2023-12-20T10:44:04;100685.16;;;5.35;100.00
23433;BME280;41331;45.412;10.992;2023-12-20T10:46:35;100693.78;;;5.37;100.00
23433;BME280;41331;45.412;10.992;2023-12-20T10:49:05;100691.34;;;5.36;100.00
23433;BME280;41331;45.412;10.992;2023-12-20T10:51:33;100686.53;;;5.33;100.00
23433;BME280;41331;45.412;10.992;2023-12-20T10:54:02;100677.34;;;5.34;100.00
23433;BME280;41331;45.412;10.992;2023-12-20T10:56:32;100672.19;;;5.37;100.00
23433;BME280;41331;45.412;10.992;2023-12-20T10:59:02;100658.97;;;5.36;100.00
23433;BME280;41331;45.412;10.992;2023-12-20T11:01:34;100659.44;;;5.43;100.00
23433;BME280;41331;45.412;10.992;2023-12-20T11:04:06;100663.97;;;5.48;100.00
23433;BME280;41331;45.412;10.992;2023-12-20T11:07:08;100654.47;;;5.50;100.00
23433;BME280;41331;45.412;10.992;2023-12-20T11:09:45;100667.63;;;5.57;100.00
23433;BME280;41331;45.412;10.992;2023-12-20T11:12:21;100678.09;;;5.63;100.00
23433;BME280;41331;45.412;10.992;2023-12-20T11:14:52;100669.44;;;5.61;100.00
23433;BME280;41331;45.412;10.992;2023-12-20T11:17:21;100672.09;;;5.66;100.00
23433;BME280;41331;45.412;10.992;2023-12-20T11:22:20;100667.41;;;5.72;100.00
23433;BME280;41331;45.412;10.992;2023-12-20T11:24:49;100666.28;;;5.78;100.00
23433;BME280;41331;45.412;10.992;2023-12-20T11:27:18;100670.97;;;5.91;100.00
23433;BME280;41331;45.412;10.992;2023-12-20T11:29:57;100669.06;;;5.92;100.00
23433;BME280;41331;45.412;10.992;2023-12-20T11:37:31;100671.06;;;6.05;100.00
23433;BME280;41331;45.412;10.992;2023-12-20T11:40:05;100674.25;;;6.07;100.00
23433;BME280;41331;45.412;10.992;2023-12-20T11:42:40;100675.28;;;6.11;100.00
23433;BME280;41331;45.412;10.992;2023-12-20T11:45:08;100662.81;;;6.15;100.00
23433;BME280;41331;45.412;10.992;2023-12-20T11:47:36;100660.84;;;6.21;100.00
23433;BME280;41331;45.412;10.992;2023-12-20T11:50:05;100642.06;;;6.30;100.00
23433;BME280;41331;45.412;10.992;2023-12-20T11:52:33;100632.94;;;6.26;100.00
23433;BME280;41331;45.412;10.992;2023-12-20T11:55:00;100636.25;;;6.36;100.00
23433;BME280;41331;45.412;10.992;2023-12-20T11:57:29;100628.59;;;6.43;100.00
23433;BME280;41331;45.412;10.992;2023-12-20T11:59:57;100629.56;;;6.34;100.00
23433;BME280;41331;45.412;10.992;2023-12-20T12:02:25;100632.09;;;6.44;100.00
23433;BME280;41331;45.412;10.992;2023-12-20T12:04:53;100632.38;;;6.42;100.00
23433;BME280;41331;45.412;10.992;2023-12-20T12:07:21;100622.72;;;6.55;100.00
23433;BME280;41331;45.412;10.992;2023-12-20T12:09:49;100622.31;;;6.62;100.00
23433;BME280;41331;45.412;10.992;2023-12-20T12:12:18;100618.44;;;6.68;100.00
23433;BME280;41331;45.412;10.992;2023-12-20T12:14:50;100613.63;;;6.65;100.00
23433;BME280;41331;45.412;10.992;2023-12-20T12:17:17;100611.84;;;6.74;100.00
23433;BME280;41331;45.412;10.992;2023-12-20T12:19:46;100607.63;;;6.82;100.00
23433;BME280;41331;45.412;10.992;2023-12-20T12:22:14;100602.81;;;6.92;100.00
23433;BME280;41331;45.412;10.992;2023-12-20T12:24:44;100603.25;;;6.99;100.00
23433;BME280;41331;45.412;10.992;2023-12-20T12:27:13;100603.56;;;6.98;100.00
23433;BME280;41331;45.412;10.992;2023-12-20T12:30:00;100579.19;;;7.12;100.00
23433;BME280;41331;45.412;10.992;2023-12-20T12:32:29;100577.00;;;7.14;100.00
23433;BME280;41331;45.412;10.992;2023-12-20T12:34:57;100561.13;;;7.21;100.00
23433;BME280;41331;45.412;10.992;2023-12-20T12:37:26;100570.25;;;7.25;100.00
23433;BME280;41331;45.412;10.992;2023-12-20T12:39:54;100565.06;;;7.29;100.00
23433;BME280;41331;45.412;10.992;2023-12-20T12:42:22;100580.09;;;7.35;99.62
23433;BME280;41331;45.412;10.992;2023-12-20T12:44:53;100583.09;;;7.33;100.00
23433;BME280;41331;45.412;10.992;2023-12-20T12:47:21;100587.09;;;7.36;100.00
23433;BME280;41331;45.412;10.992;2023-12-20T12:49:51;100582.94;;;7.52;100.00
23433;BME280;41331;45.412;10.992;2023-12-20T12:52:19;100578.53;;;7.56;100.00
23433;BME280;41331;45.412;10.992;2023-12-20T12:54:48;100567.78;;;7.65;98.67